Time;durP1;ratioP1;P1;durP2;ratioP2;P2;SDS_P1;SDS_P2;PMS_P1;PMS_P2;Temp;Humidity;BMP_temperature;BMP_pressure;BME280_temperature;BME280_humidity;BME280_pressure;Samples;Min_cycle;Max_cycle;Signal;HPM_P1;HPM_P2
2023/10/01 00:01:12;;;;;;;;;;;11.80;99.90;;;;;;7586959;19;19915;-77
2023/10/01 00:03:45;;;;;;;;;;;11.90;99.90;;;;;;7589607;19;22331;-76
2023/10/01 00:06:17;;;;;;;;;;;11.90;99.90;;;;;;7573551;19;20454;-77
2023/10/01 00:08:49;;;;;;;;;;;11.90;99.90;;;;;;7578033;19;19946;-77
2023/10/01 00:11:21;;;;;;;;;;;11.90;99.90;;;;;;7593203;19;19925;-77
2023/10/01 00:13:53;;;;;;;;;;;12.00;99.90;;;;;;7591461;19;19931;-77
2023/10/01 00:16:28;;;;;;;;;;;12.00;99.90;;;;;;7587598;19;19914;-77
2023/10/01 00:19:00;;;;;;;;;;;12.10;99.90;;;;;;7591595;19;19930;-77
2023/10/01 00:21:33;;;;;;;;;;;12.00;99.90;;;;;;7595681;19;19926;-78
2023/10/01 00:24:05;;;;;;;;;;;11.90;99.90;;;;;;7594439;19;19919;-77
2023/10/01 00:26:38;;;;;;;;;;;11.90;99.90;;;;;;7581114;19;19926;-77
2023/10/01 00:29:11;;;;;;;;;;;12.00;99.90;;;;;;7594453;19;19923;-76
2023/10/01 00:31:45;;;;;;;;;;;12.10;99.90;;;;;;7587575;19;20829;-77
2023/10/01 00:34:18;;;;;;;;;;;12.00;99.90;;;;;;7578693;19;19919;-79
2023/10/01 00:36:52;;;;;;;;;;;12.00;99.90;;;;;;7588214;19;19919;-77
2023/10/01 00:39:24;;;;;;;;;;;12.00;99.90;;;;;;7589624;19;19927;-77
2023/10/01 00:41:56;;;;;;;;;;;12.00;99.90;;;;;;7586354;19;19954;-78
2023/10/01 00:44:28;;;;;;;;;;;11.80;99.90;;;;;;7593828;19;19923;-77
2023/10/01 00:47:04;;;;;;;;;;;11.80;99.90;;;;;;7589155;19;19922;-78
2023/10/01 00:49:39;;;;;;;;;;;11.80;99.90;;;;;;7588360;19;21107;-74
2023/10/01 00:52:11;;;;;;;;;;;11.90;99.90;;;;;;7599989;19;19922;-77
2023/10/01 00:54:47;;;;;;;;;;;11.80;99.90;;;;;;7588666;19;19933;-77
2023/10/01 00:57:21;;;;;;;;;;;11.80;99.90;;;;;;7590137;19;20284;-78
2023/10/01 00:59:53;;;;;;;;;;;11.90;99.90;;;;;;7593193;19;20329;-77
2023/10/01 01:02:26;;;;;;;;;;;11.80;99.90;;;;;;7579721;19;19937;-78
2023/10/01 01:05:20;;;;;;;;;;;11.80;99.90;;;;;;7588636;19;20361;-76
2023/10/01 01:07:54;;;;;;;;;;;11.60;99.90;;;;;;7576997;19;20403;-77
2023/10/01 01:10:31;;;;;;;;;;;11.50;99.90;;;;;;7592442;19;19948;-78
2023/10/01 01:13:06;;;;;;;;;;;11.40;99.90;;;;;;7592089;19;19918;-77
2023/10/01 01:15:39;;;;;;;;;;;11.40;99.90;;;;;;7588325;19;20715;-76
2023/10/01 01:18:13;;;;;;;;;;;11.40;99.90;;;;;;7592553;19;19919;-77
2023/10/01 01:20:46;;;;;;;;;;;11.30;99.90;;;;;;7588081;19;19964;-76
2023/10/01 01:23:21;;;;;;;;;;;11.20;99.90;;;;;;7589917;19;19922;-76
2023/10/01 01:25:54;;;;;;;;;;;11.10;99.90;;;;;;7577053;19;19914;-76
2023/10/01 01:28:32;;;;;;;;;;;11.10;99.90;;;;;;7601314;19;20423;-76
2023/10/01 01:31:05;;;;;;;;;;;11.10;99.90;;;;;;7589448;19;19926;-76
2023/10/01 01:33:44;;;;;;;;;;;11.20;99.90;;;;;;7585788;19;20538;-77
2023/10/01 01:36:17;;;;;;;;;;;11.10;99.90;;;;;;7576146;19;19926;-76
2023/10/01 01:39:09;;;;;;;;;;;11.20;99.90;;;;;;7570383;19;21050;-76
2023/10/01 01:41:42;;;;;;;;;;;11.20;99.90;;;;;;7596129;19;19957;-75
2023/10/01 01:44:16;;;;;;;;;;;11.20;99.90;;;;;;7602417;19;19927;-77
2023/10/01 01:46:49;;;;;;;;;;;11.30;99.90;;;;;;7591924;19;19930;-78
2023/10/01 01:49:24;;;;;;;;;;;11.30;99.90;;;;;;7587375;19;20345;-77
2023/10/01 01:51:57;;;;;;;;;;;11.30;99.90;;;;;;7588199;19;19925;-77
2023/10/01 01:54:34;;;;;;;;;;;11.20;99.90;;;;;;7595513;19;19933;-77
2023/10/01 01:57:13;;;;;;;;;;;11.20;99.90;;;;;;7586950;19;19918;-78
2023/10/01 01:59:46;;;;;;;;;;;11.10;99.90;;;;;;7596129;19;19922;-77
2023/10/01 02:02:19;;;;;;;;;;;11.10;99.90;;;;;;7582987;19;19918;-77
2023/10/01 02:05:00;;;;;;;;;;;11.10;99.90;;;;;;7576592;19;19924;-77
2023/10/01 02:07:35;;;;;;;;;;;11.10;99.90;;;;;;7590380;19;19915;-76
2023/10/01 02:10:08;;;;;;;;;;;11.10;99.90;;;;;;7594534;19;19929;-76
2023/10/01 02:12:43;;;;;;;;;;;11.20;99.90;;;;;;7584178;19;19918;-75
2023/10/01 02:15:15;;;;;;;;;;;11.40;99.90;;;;;;7595873;19;19929;-75
2023/10/01 02:17:48;;;;;;;;;;;11.20;99.90;;;;;;7583845;19;19925;-76
2023/10/01 02:20:27;;;;;;;;;;;11.30;99.90;;;;;;7590896;19;19929;-76
2023/10/01 02:23:02;;;;;;;;;;;11.20;99.90;;;;;;7592374;19;20401;-76
2023/10/01 02:25:37;;;;;;;;;;;11.10;99.90;;;;;;7594323;19;19925;-76
2023/10/01 02:28:14;;;;;;;;;;;11.20;99.90;;;;;;7596468;19;19923;-75
2023/10/01 02:30:47;;;;;;;;;;;11.00;99.90;;;;;;7582638;19;19922;-78
2023/10/01 02:33:19;;;;;;;;;;;11.10;99.90;;;;;;7596040;19;19946;-78
2023/10/01 02:35:58;;;;;;;;;;;11.00;99.90;;;;;;7579718;19;19918;-75
2023/10/01 02:38:53;;;;;;;;;;;11.00;99.90;;;;;;7589001;19;19922;-75
2023/10/01 02:41:25;;;;;;;;;;;11.20;99.90;;;;;;7584139;19;19927;-75
2023/10/01 02:44:01;;;;;;;;;;;11.10;99.90;;;;;;7589542;19;19948;-78
2023/10/01 02:46:34;;;;;;;;;;;11.10;99.90;;;;;;7589750;19;19923;-75
2023/10/01 02:49:12;;;;;;;;;;;11.20;99.90;;;;;;7591386;19;19953;-76
2023/10/01 02:51:45;;;;;;;;;;;11.30;99.90;;;;;;7584335;19;21144;-77
2023/10/01 02:54:18;;;;;;;;;;;11.00;99.90;;;;;;7590468;19;21049;-77
2023/10/01 02:57:12;;;;;;;;;;;11.00;99.90;;;;;;7584306;19;21150;-78
2023/10/01 03:00:31;;;;;;;;;;;11.00;99.90;;;;;;7587638;19;20297;-77
2023/10/01 03:02:38;;;;;;;;;;;11.00;99.90;;;;;;7592296;19;20899;-77
2023/10/01 03:05:18;;;;;;;;;;;10.90;99.90;;;;;;7577688;19;19926;-76
2023/10/01 03:07:52;;;;;;;;;;;10.90;99.90;;;;;;7593005;19;19918;-76
2023/10/01 03:10:29;;;;;;;;;;;10.80;99.90;;;;;;7581330;19;19957;-76
2023/10/01 03:13:30;;;;;;;;;;;10.80;99.90;;;;;;7593376;19;21169;-77
2023/10/01 03:16:40;;;;;;;;;;;10.80;99.90;;;;;;7584079;19;19926;-77
2023/10/01 03:22:15;;;;;;;;;;;10.90;99.90;;;;;;7588562;19;19957;-75
2023/10/01 03:24:48;;;;;;;;;;;10.90;99.90;;;;;;7577883;19;20015;-76
2023/10/01 03:27:24;;;;;;;;;;;11.00;99.90;;;;;;7598499;19;19985;-77
2023/10/01 03:30:10;;;;;;;;;;;11.10;99.90;;;;;;7579850;19;20570;-75
2023/10/01 03:32:45;;;;;;;;;;;11.10;99.90;;;;;;7590633;19;19926;-75
2023/10/01 03:35:20;;;;;;;;;;;11.10;99.90;;;;;;7591102;19;19923;-77
2023/10/01 03:38:14;;;;;;;;;;;11.10;99.90;;;;;;7590165;19;19926;-75
2023/10/01 03:41:00;;;;;;;;;;;11.00;99.90;;;;;;7597299;19;19929;-75
2023/10/01 03:43:34;;;;;;;;;;;10.90;99.90;;;;;;7586401;19;19974;-75
2023/10/01 03:46:19;;;;;;;;;;;10.80;99.90;;;;;;7584417;19;20876;-76
2023/10/01 03:48:58;;;;;;;;;;;10.80;99.90;;;;;;7587425;19;19919;-78
2023/10/01 03:52:20;;;;;;;;;;;10.80;99.90;;;;;;7595579;19;19966;-75
2023/10/01 03:57:22;;;;;;;;;;;10.90;99.90;;;;;;7585803;19;19918;-75
2023/10/01 03:59:57;;;;;;;;;;;10.90;99.90;;;;;;7588435;19;19956;-77
2023/10/01 04:02:46;;;;;;;;;;;10.70;99.90;;;;;;7591472;19;19931;-78
2023/10/01 04:05:22;;;;;;;;;;;10.70;99.90;;;;;;7582766;19;19917;-77
2023/10/01 04:07:55;;;;;;;;;;;10.60;99.90;;;;;;7592846;19;20818;-76
2023/10/01 04:13:11;;;;;;;;;;;10.70;99.90;;;;;;7594768;19;19922;-77
2023/10/01 04:15:47;;;;;;;;;;;10.70;99.90;;;;;;7591227;19;19954;-76
2023/10/01 04:18:21;;;;;;;;;;;10.70;99.90;;;;;;7581450;19;19953;-76
2023/10/01 04:23:30;;;;;;;;;;;10.70;99.90;;;;;;7580772;19;19930;-75
2023/10/01 04:26:06;;;;;;;;;;;10.90;99.90;;;;;;7583703;19;19938;-77
2023/10/01 04:28:46;;;;;;;;;;;10.90;99.90;;;;;;7585192;19;19918;-77
2023/10/01 04:31:22;;;;;;;;;;;10.90;99.90;;;;;;7586291;19;20030;-78
2023/10/01 04:33:55;;;;;;;;;;;10.90;99.90;;;;;;7588523;19;20424;-77
2023/10/01 04:36:27;;;;;;;;;;;10.90;99.90;;;;;;7593487;19;20943;-77
2023/10/01 04:39:00;;;;;;;;;;;10.70;99.90;;;;;;7584730;19;20287;-77
2023/10/01 04:41:32;;;;;;;;;;;10.70;99.90;;;;;;7588318;19;20447;-77
2023/10/01 04:44:07;;;;;;;;;;;10.70;99.90;;;;;;7585937;19;19974;-77
2023/10/01 04:46:45;;;;;;;;;;;10.70;99.90;;;;;;7581555;19;19926;-77
2023/10/01 04:49:31;;;;;;;;;;;10.80;99.90;;;;;;7582211;19;19925;-77
2023/10/01 04:52:11;;;;;;;;;;;10.80;99.90;;;;;;7581653;19;19929;-77
2023/10/01 04:54:47;;;;;;;;;;;10.90;99.90;;;;;;7580664;19;19923;-77
2023/10/01 04:57:21;;;;;;;;;;;10.80;99.90;;;;;;7567683;19;20003;-77
2023/10/01 04:59:56;;;;;;;;;;;10.70;99.90;;;;;;7594728;19;20479;-76
2023/10/01 05:02:32;;;;;;;;;;;10.60;99.90;;;;;;7591759;19;19922;-75
2023/10/01 05:05:11;;;;;;;;;;;10.70;99.90;;;;;;7587658;19;20952;-76
2023/10/01 05:07:45;;;;;;;;;;;10.70;99.90;;;;;;7592475;19;19923;-76
2023/10/01 05:10:17;;;;;;;;;;;10.60;99.90;;;;;;7582378;19;20270;-76
2023/10/01 05:12:55;;;;;;;;;;;10.60;99.90;;;;;;7586652;19;20546;-76
2023/10/01 05:15:35;;;;;;;;;;;10.70;99.90;;;;;;7587350;19;19929;-76
2023/10/01 05:18:10;;;;;;;;;;;10.70;99.90;;;;;;7582982;19;19971;-76
2023/10/01 05:20:42;;;;;;;;;;;10.70;99.90;;;;;;7584718;19;19930;-76
2023/10/01 05:23:17;;;;;;;;;;;10.60;99.90;;;;;;7572687;19;19923;-76
2023/10/01 05:25:50;;;;;;;;;;;10.60;99.90;;;;;;7581987;19;19959;-76
2023/10/01 05:28:23;;;;;;;;;;;10.60;99.90;;;;;;7585816;19;19918;-76
2023/10/01 05:30:58;;;;;;;;;;;10.70;99.90;;;;;;7582771;19;20261;-76
2023/10/01 05:33:32;;;;;;;;;;;10.70;99.90;;;;;;7578418;19;19956;-76
2023/10/01 05:36:05;;;;;;;;;;;10.70;99.90;;;;;;7587213;19;20780;-76
2023/10/01 05:38:37;;;;;;;;;;;10.80;99.90;;;;;;7580681;19;19921;-76
2023/10/01 05:41:13;;;;;;;;;;;10.80;99.90;;;;;;7578671;19;19934;-77
2023/10/01 05:43:50;;;;;;;;;;;10.80;99.90;;;;;;7593458;19;19921;-76
2023/10/01 05:46:23;;;;;;;;;;;10.70;99.90;;;;;;7579284;19;19923;-77
2023/10/01 05:49:00;;;;;;;;;;;10.60;99.90;;;;;;7586983;19;20513;-77
2023/10/01 05:51:44;;;;;;;;;;;10.80;99.90;;;;;;7589334;19;20456;-76
2023/10/01 05:54:21;;;;;;;;;;;10.90;99.90;;;;;;7590591;19;19978;-76
2023/10/01 05:56:55;;;;;;;;;;;10.90;99.90;;;;;;7577839;19;20016;-76
2023/10/01 05:59:27;;;;;;;;;;;10.90;99.90;;;;;;7575728;19;19919;-76
2023/10/01 06:01:59;;;;;;;;;;;11.00;99.90;;;;;;7566416;19;19922;-76
2023/10/01 06:04:32;;;;;;;;;;;11.00;99.90;;;;;;7570759;19;19953;-76
2023/10/01 06:07:04;;;;;;;;;;;11.10;99.90;;;;;;7555070;19;19926;-76
2023/10/01 06:09:36;;;;;;;;;;;11.10;99.90;;;;;;7580886;19;20567;-76
2023/10/01 06:12:10;;;;;;;;;;;11.20;99.90;;;;;;7579322;19;19991;-75
2023/10/01 06:14:45;;;;;;;;;;;11.30;99.90;;;;;;7591010;19;19940;-76
2023/10/01 06:17:18;;;;;;;;;;;11.40;99.90;;;;;;7589754;19;19914;-77
2023/10/01 06:19:51;;;;;;;;;;;11.30;99.90;;;;;;7592488;19;19936;-75
2023/10/01 06:22:25;;;;;;;;;;;11.30;99.90;;;;;;7595303;19;19922;-75
2023/10/01 06:24:58;;;;;;;;;;;11.40;99.90;;;;;;7587355;19;20796;-76
2023/10/01 06:27:30;;;;;;;;;;;11.50;99.90;;;;;;7586751;19;19937;-78
2023/10/01 06:30:07;;;;;;;;;;;11.60;99.90;;;;;;7581470;19;19930;-78
2023/10/01 06:32:39;;;;;;;;;;;11.70;99.90;;;;;;7575545;19;19922;-75
2023/10/01 06:35:14;;;;;;;;;;;11.80;99.90;;;;;;7587441;19;19938;-75
2023/10/01 06:37:50;;;;;;;;;;;12.00;99.90;;;;;;7588314;19;19918;-77
2023/10/01 06:40:31;;;;;;;;;;;12.10;99.90;;;;;;7590717;19;22335;-75
2023/10/01 06:43:06;;;;;;;;;;;12.30;99.90;;;;;;7590727;19;20920;-75
2023/10/01 06:45:39;;;;;;;;;;;12.40;99.90;;;;;;7588391;19;20325;-77
2023/10/01 06:48:14;;;;;;;;;;;12.50;99.90;;;;;;7595951;19;19922;-77
2023/10/01 06:50:49;;;;;;;;;;;12.50;99.90;;;;;;7590730;19;19922;-78
2023/10/01 06:53:43;;;;;;;;;;;12.70;99.90;;;;;;7571007;19;25113;-75
2023/10/01 06:56:17;;;;;;;;;;;12.70;99.90;;;;;;7566363;19;19945;-77
2023/10/01 07:01:56;;;;;;;;;;;12.90;99.90;;;;;;7580058;19;19918;-75
2023/10/01 07:04:32;;;;;;;;;;;13.00;99.90;;;;;;7570143;19;19949;-75
2023/10/01 07:07:20;;;;;;;;;;;13.10;99.90;;;;;;7596440;19;19915;-76
2023/10/01 07:09:53;;;;;;;;;;;13.20;99.90;;;;;;7579354;19;19929;-77
2023/10/01 07:12:25;;;;;;;;;;;13.30;99.90;;;;;;7590089;19;21579;-77
2023/10/01 07:14:58;;;;;;;;;;;13.40;99.90;;;;;;7586813;19;22877;-77
2023/10/01 07:17:31;;;;;;;;;;;13.40;99.90;;;;;;7590557;19;19926;-75
2023/10/01 07:20:18;;;;;;;;;;;13.50;99.90;;;;;;7581941;19;19925;-75
2023/10/01 07:22:52;;;;;;;;;;;13.70;99.90;;;;;;7588354;19;19918;-76
2023/10/01 07:25:37;;;;;;;;;;;14.00;99.90;;;;;;7594507;19;19919;-75
2023/10/01 07:28:12;;;;;;;;;;;14.30;99.90;;;;;;7581176;19;19918;-76
2023/10/01 07:30:46;;;;;;;;;;;14.50;99.90;;;;;;7578127;19;21614;-75
2023/10/01 07:33:20;;;;;;;;;;;14.70;99.90;;;;;;7580455;19;19982;-76
2023/10/01 07:36:00;;;;;;;;;;;14.90;99.90;;;;;;7553355;19;19953;-77
2023/10/01 07:38:46;;;;;;;;;;;15.10;99.90;;;;;;7575043;19;19925;-75
2023/10/01 07:41:27;;;;;;;;;;;15.20;99.90;;;;;;7579443;19;19918;-75
2023/10/01 07:44:07;;;;;;;;;;;15.40;99.90;;;;;;7588357;19;20472;-74
2023/10/01 07:46:40;;;;;;;;;;;15.60;99.90;;;;;;7585434;19;19918;-75
2023/10/01 07:49:18;;;;;;;;;;;15.70;99.90;;;;;;7562742;19;21878;-74
2023/10/01 07:51:51;;;;;;;;;;;15.90;99.90;;;;;;7573828;19;19922;-76
2023/10/01 07:54:28;;;;;;;;;;;16.10;99.90;;;;;;7592004;19;19930;-75
2023/10/01 07:57:01;;;;;;;;;;;16.20;99.90;;;;;;7546948;19;20237;-77
2023/10/01 07:59:34;;;;;;;;;;;16.30;99.90;;;;;;7569440;19;19918;-75
2023/10/01 08:07:22;;;;;;;;;;;16.80;99.90;;;;;;7551477;19;19923;-74
2023/10/01 08:09:57;;;;;;;;;;;16.80;99.90;;;;;;7571622;19;20732;-75
2023/10/01 08:12:56;;;;;;;;;;;16.90;99.90;;;;;;7569424;19;19915;-74
2023/10/01 08:15:45;;;;;;;;;;;17.10;99.90;;;;;;7578176;19;20938;-75
2023/10/01 08:18:34;;;;;;;;;;;17.20;99.90;;;;;;7569785;19;19922;-77
2023/10/01 08:21:15;;;;;;;;;;;17.30;99.90;;;;;;7579828;19;19964;-78
2023/10/01 08:23:54;;;;;;;;;;;17.40;99.90;;;;;;7575083;19;19968;-77
2023/10/01 08:26:43;;;;;;;;;;;17.50;99.90;;;;;;7566169;19;19915;-76
2023/10/01 08:29:16;;;;;;;;;;;17.50;99.90;;;;;;7586657;19;19945;-77
2023/10/01 08:34:23;;;;;;;;;;;17.70;99.90;;;;;;7572527;19;19918;-77
2023/10/01 08:37:06;;;;;;;;;;;17.70;99.90;;;;;;7567815;19;20259;-77
2023/10/01 08:39:48;;;;;;;;;;;17.90;99.90;;;;;;7578202;19;19923;-76
2023/10/01 08:42:22;;;;;;;;;;;17.90;99.90;;;;;;7591598;19;19919;-78
2023/10/01 08:45:02;;;;;;;;;;;18.00;99.90;;;;;;7608706;19;19925;-77
2023/10/01 08:47:34;;;;;;;;;;;18.00;99.90;;;;;;7607571;19;19922;-78
2023/10/01 08:50:27;;;;;;;;;;;18.10;99.90;;;;;;7617953;19;19925;-77
2023/10/01 08:53:10;;;;;;;;;;;18.20;99.90;;;;;;7611546;19;19915;-77
2023/10/01 09:03:47;;;;;;;;;;;18.50;99.90;;;;;;7606004;19;20629;-76
2023/10/01 09:06:44;;;;;;;;;;;18.50;99.90;;;;;;7600298;19;19919;-77
2023/10/01 09:09:21;;;;;;;;;;;18.60;99.90;;;;;;7613668;19;19940;-78
2023/10/01 09:11:58;;;;;;;;;;;18.70;99.90;;;;;;7614758;19;19963;-79
2023/10/01 09:14:35;;;;;;;;;;;18.60;99.90;;;;;;7630340;19;19940;-75
2023/10/01 09:17:24;;;;;;;;;;;18.80;99.90;;;;;;7617584;19;19903;-76
2023/10/01 09:20:06;;;;;;;;;;;18.80;99.90;;;;;;7610851;19;19919;-75
2023/10/01 09:22:58;;;;;;;;;;;18.80;99.90;;;;;;7612256;19;19926;-76
2023/10/01 09:25:34;;;;;;;;;;;18.90;99.90;;;;;;7603470;19;19923;-75
2023/10/01 09:28:19;;;;;;;;;;;18.90;99.90;;;;;;7610844;19;20424;-76
2023/10/01 09:30:57;;;;;;;;;;;19.10;99.90;;;;;;7598877;19;20374;-76
2023/10/01 09:33:31;;;;;;;;;;;19.20;99.90;;;;;;7615181;19;19927;-75
2023/10/01 09:36:04;;;;;;;;;;;19.20;99.90;;;;;;7610840;19;19948;-77
2023/10/01 09:38:57;;;;;;;;;;;19.30;99.90;;;;;;7594268;19;19915;-76
2023/10/01 09:41:40;;;;;;;;;;;19.30;99.90;;;;;;7589236;19;19926;-77
2023/10/01 09:44:14;;;;;;;;;;;19.30;99.90;;;;;;7590292;19;19929;-76
2023/10/01 09:46:48;;;;;;;;;;;19.40;99.90;;;;;;7545370;19;19918;-72
2023/10/01 09:49:30;;;;;;;;;;;19.50;99.90;;;;;;7575480;19;19918;-73
2023/10/01 09:52:03;;;;;;;;;;;19.50;99.90;;;;;;7439861;19;19923;-71
2023/10/01 09:54:41;;;;;;;;;;;19.60;99.90;;;;;;7558056;19;19919;-71
2023/10/01 09:57:13;;;;;;;;;;;19.60;99.90;;;;;;7579573;19;20732;-74
2023/10/01 09:59:49;;;;;;;;;;;19.70;99.90;;;;;;7559214;19;19918;-72
2023/10/01 10:02:27;;;;;;;;;;;19.80;99.90;;;;;;7576778;19;19926;-70
2023/10/01 10:05:00;;;;;;;;;;;19.90;99.90;;;;;;7556311;19;19925;-70
2023/10/01 10:07:32;;;;;;;;;;;19.90;99.90;;;;;;7560415;19;20023;-72
2023/10/01 10:10:06;;;;;;;;;;;20.00;99.90;;;;;;7529969;19;20113;-71
2023/10/01 10:12:38;;;;;;;;;;;20.10;99.90;;;;;;7517047;19;19907;-70
2023/10/01 10:15:16;;;;;;;;;;;20.10;99.90;;;;;;7562654;19;20932;-71
2023/10/01 10:17:59;;;;;;;;;;;20.30;99.90;;;;;;7571908;19;19923;-71
2023/10/01 10:20:51;;;;;;;;;;;20.40;99.90;;;;;;7540640;19;20879;-72
2023/10/01 10:23:30;;;;;;;;;;;20.60;99.90;;;;;;7579539;19;19923;-72
2023/10/01 10:26:12;;;;;;;;;;;20.60;99.90;;;;;;7581072;19;19915;-73
2023/10/01 10:28:55;;;;;;;;;;;20.70;99.90;;;;;;7565028;19;24213;-72
2023/10/01 10:31:30;;;;;;;;;;;20.70;99.90;;;;;;7590258;19;19915;-73
2023/10/01 10:34:21;;;;;;;;;;;20.70;99.90;;;;;;7583804;19;20002;-72
2023/10/01 10:36:55;;;;;;;;;;;20.70;99.90;;;;;;7590271;19;19918;-72
2023/10/01 10:39:48;;;;;;;;;;;20.60;99.90;;;;;;7580471;19;20353;-71
2023/10/01 10:42:31;;;;;;;;;;;20.70;99.90;;;;;;7588209;19;20420;-71
2023/10/01 10:45:26;;;;;;;;;;;20.50;99.90;;;;;;7601483;19;20350;-71
2023/10/01 10:48:02;;;;;;;;;;;20.60;99.90;;;;;;7592504;19;20500;-72
2023/10/01 10:50:49;;;;;;;;;;;20.70;99.90;;;;;;7591262;19;19922;-71
2023/10/01 10:53:25;;;;;;;;;;;20.80;99.90;;;;;;7606606;19;19944;-71
2023/10/01 10:56:05;;;;;;;;;;;21.10;99.90;;;;;;7594297;19;19949;-71
2023/10/01 10:58:44;;;;;;;;;;;21.30;99.90;;;;;;7589070;19;19934;-72
2023/10/01 11:01:20;;;;;;;;;;;21.30;99.90;;;;;;7597938;19;19957;-72
2023/10/01 11:03:57;;;;;;;;;;;21.30;99.70;;;;;;7587653;19;19922;-71
2023/10/01 11:06:39;;;;;;;;;;;21.30;99.10;;;;;;7582387;19;19922;-71
2023/10/01 11:09:27;;;;;;;;;;;21.20;99.40;;;;;;7588068;19;19915;-71
2023/10/01 11:12:01;;;;;;;;;;;21.30;99.90;;;;;;7586612;19;19930;-71
2023/10/01 11:14:34;;;;;;;;;;;21.30;99.30;;;;;;7589038;19;19929;-71
2023/10/01 11:17:06;;;;;;;;;;;21.40;99.70;;;;;;7590451;19;19952;-71
2023/10/01 11:19:40;;;;;;;;;;;21.80;99.20;;;;;;7589028;19;19924;-71
2023/10/01 11:22:12;;;;;;;;;;;22.40;99.00;;;;;;7599853;19;19925;-72
2023/10/01 11:24:44;;;;;;;;;;;23.30;97.40;;;;;;7591054;19;20845;-72
2023/10/01 11:27:43;;;;;;;;;;;24.40;94.00;;;;;;7575494;19;19933;-72
2023/10/01 11:30:16;;;;;;;;;;;25.60;92.70;;;;;;7580615;19;19977;-72
2023/10/01 11:35:34;;;;;;;;;;;27.20;83.90;;;;;;7591191;19;20296;-72
2023/10/01 11:38:07;;;;;;;;;;;27.90;83.40;;;;;;7592446;19;19919;-72
2023/10/01 11:43:42;;;;;;;;;;;29.30;75.80;;;;;;7588191;19;19951;-72
2023/10/01 11:46:19;;;;;;;;;;;28.90;73.50;;;;;;7574210;19;20576;-70
2023/10/01 11:49:05;;;;;;;;;;;29.20;71.40;;;;;;7570013;19;19949;-72
2023/10/01 11:51:42;;;;;;;;;;;29.00;69.90;;;;;;7559697;19;19969;-72
2023/10/01 11:54:15;;;;;;;;;;;29.70;69.40;;;;;;7574426;19;19914;-70
2023/10/01 11:57:08;;;;;;;;;;;30.10;68.30;;;;;;7571072;19;19918;-70
2023/10/01 11:59:42;;;;;;;;;;;30.60;64.30;;;;;;7565008;19;19919;-70
2023/10/01 12:02:21;;;;;;;;;;;30.80;62.30;;;;;;7572465;19;19922;-71
2023/10/01 12:04:57;;;;;;;;;;;30.80;61.70;;;;;;7571752;19;19945;-70
2023/10/01 12:07:32;;;;;;;;;;;31.00;61.40;;;;;;7559082;19;19919;-71
2023/10/01 12:10:07;;;;;;;;;;;30.50;61.50;;;;;;7574778;19;21006;-70
2023/10/01 12:12:39;;;;;;;;;;;29.80;61.70;;;;;;7579058;19;19919;-71
2023/10/01 12:18:14;;;;;;;;;;;30.50;61.60;;;;;;7514453;19;20593;-71
2023/10/01 12:20:55;;;;;;;;;;;31.10;62.40;;;;;;7539130;19;20750;-71
2023/10/01 12:23:27;;;;;;;;;;;31.60;59.80;;;;;;7562475;19;19926;-71
2023/10/01 12:28:35;;;;;;;;;;;31.70;59.70;;;;;;7539171;19;19918;-71
2023/10/01 12:31:10;;;;;;;;;;;31.80;57.60;;;;;;7552067;19;19930;-71
2023/10/01 12:33:46;;;;;;;;;;;31.60;58.30;;;;;;7532385;19;19926;-72
2023/10/01 12:36:32;;;;;;;;;;;32.30;58.00;;;;;;7531227;19;19919;-73
2023/10/01 12:41:56;;;;;;;;;;;32.60;56.10;;;;;;7566702;19;19941;-71
2023/10/01 12:44:30;;;;;;;;;;;32.50;56.90;;;;;;7542506;19;19915;-72
2023/10/01 12:47:06;;;;;;;;;;;32.60;55.30;;;;;;7559234;19;20096;-71
2023/10/01 12:49:42;;;;;;;;;;;32.30;55.30;;;;;;7557531;19;19926;-70
2023/10/01 12:52:15;;;;;;;;;;;32.50;54.90;;;;;;7525543;19;19911;-68
2023/10/01 12:54:47;;;;;;;;;;;32.70;54.40;;;;;;7554436;19;19914;-70
2023/10/01 12:57:22;;;;;;;;;;;33.10;54.00;;;;;;7549291;19;20784;-68
2023/10/01 13:02:46;;;;;;;;;;;33.50;53.50;;;;;;7560520;19;21254;-70
2023/10/01 13:05:20;;;;;;;;;;;32.90;51.60;;;;;;7567625;19;19971;-69
2023/10/01 13:07:56;;;;;;;;;;;32.40;53.00;;;;;;7561084;19;19926;-70
2023/10/01 13:10:35;;;;;;;;;;;32.60;53.60;;;;;;7555094;19;19978;-69
2023/10/01 13:13:08;;;;;;;;;;;33.00;53.50;;;;;;7560593;19;19943;-70
2023/10/01 13:15:41;;;;;;;;;;;33.10;51.60;;;;;;7563163;19;19922;-71
2023/10/01 13:18:22;;;;;;;;;;;33.60;51.70;;;;;;7565699;19;19915;-70
2023/10/01 13:23:31;;;;;;;;;;;34.50;51.30;;;;;;7588533;19;19921;-71
2023/10/01 13:26:09;;;;;;;;;;;35.10;50.00;;;;;;7578309;19;19918;-71
2023/10/01 13:28:46;;;;;;;;;;;35.50;49.30;;;;;;7575620;19;19919;-71
2023/10/01 13:34:21;;;;;;;;;;;35.70;49.30;;;;;;7593278;19;21651;-71
2023/10/01 14:08:43;;;;;;;;;;;38.60;45.00;;;;;;7577852;19;19923;-69
2023/10/01 14:11:16;;;;;;;;;;;38.40;45.70;;;;;;7588883;19;19930;-71
2023/10/01 14:13:49;;;;;;;;;;;38.30;44.60;;;;;;7587263;19;19997;-70
2023/10/01 14:16:22;;;;;;;;;;;38.10;45.10;;;;;;7578266;19;20393;-71
2023/10/01 14:18:57;;;;;;;;;;;38.30;45.90;;;;;;7569476;19;19919;-71
2023/10/01 14:21:32;;;;;;;;;;;37.20;45.40;;;;;;7583591;19;19915;-70
2023/10/01 14:24:24;;;;;;;;;;;37.20;46.10;;;;;;7577856;19;20862;-71
2023/10/01 14:26:57;;;;;;;;;;;36.80;46.30;;;;;;7586978;19;19930;-70
2023/10/01 14:29:33;;;;;;;;;;;37.10;46.10;;;;;;7587021;19;19911;-71
2023/10/01 14:32:10;;;;;;;;;;;37.30;45.80;;;;;;7596397;19;19970;-71
2023/10/01 14:34:43;;;;;;;;;;;36.80;45.60;;;;;;7575008;19;19915;-71
2023/10/01 14:37:16;;;;;;;;;;;37.10;45.30;;;;;;7559619;19;20403;-70
2023/10/01 14:39:48;;;;;;;;;;;36.40;45.30;;;;;;7584640;19;20001;-70
2023/10/01 14:42:21;;;;;;;;;;;35.00;45.60;;;;;;7595422;19;20510;-70
2023/10/01 14:45:04;;;;;;;;;;;32.80;48.10;;;;;;7597003;19;21055;-70
2023/10/01 14:47:39;;;;;;;;;;;30.60;50.10;;;;;;7578608;19;19956;-70
2023/10/01 14:50:15;;;;;;;;;;;29.20;52.60;;;;;;7580691;19;21143;-71
2023/10/01 14:52:48;;;;;;;;;;;28.10;52.80;;;;;;7591018;19;19922;-70
2023/10/01 14:55:22;;;;;;;;;;;27.40;53.50;;;;;;7591234;19;19970;-70
2023/10/01 14:57:55;;;;;;;;;;;27.10;54.40;;;;;;7590661;19;21132;-70
2023/10/01 15:00:27;;;;;;;;;;;26.70;55.10;;;;;;7582396;19;19925;-70
2023/10/01 15:02:59;;;;;;;;;;;26.40;56.70;;;;;;7573050;19;19926;-70
2023/10/01 15:05:31;;;;;;;;;;;26.10;57.10;;;;;;7575416;19;19921;-70
2023/10/01 15:08:03;;;;;;;;;;;25.80;57.80;;;;;;7590108;19;20306;-70
2023/10/01 15:10:36;;;;;;;;;;;26.00;56.70;;;;;;7578488;19;20975;-70
2023/10/01 15:13:12;;;;;;;;;;;25.70;57.80;;;;;;7585643;19;19931;-69
2023/10/01 15:16:02;;;;;;;;;;;25.60;58.10;;;;;;7589389;19;21053;-70
2023/10/01 15:19:00;;;;;;;;;;;25.50;58.60;;;;;;7586947;19;19922;-70
2023/10/01 15:21:38;;;;;;;;;;;25.40;59.50;;;;;;7586856;19;20793;-70
2023/10/01 15:24:11;;;;;;;;;;;25.30;60.90;;;;;;7586149;19;20844;-70
2023/10/01 15:26:43;;;;;;;;;;;25.00;60.70;;;;;;7588709;19;20760;-70
2023/10/01 15:29:16;;;;;;;;;;;24.80;61.90;;;;;;7567326;19;20414;-69
2023/10/01 15:31:51;;;;;;;;;;;24.80;63.50;;;;;;7584697;19;19923;-70
2023/10/01 15:34:25;;;;;;;;;;;24.70;64.30;;;;;;7557629;19;19918;-69
2023/10/01 15:37:02;;;;;;;;;;;24.60;67.60;;;;;;7589551;19;19926;-70
2023/10/01 15:42:22;;;;;;;;;;;24.30;69.80;;;;;;7576016;19;20314;-70
2023/10/01 15:44:59;;;;;;;;;;;24.20;67.70;;;;;;7582507;19;19926;-70
2023/10/01 15:47:36;;;;;;;;;;;24.30;67.10;;;;;;7583239;19;19921;-71
2023/10/01 15:50:10;;;;;;;;;;;24.40;65.70;;;;;;7580157;19;20022;-69
2023/10/01 15:52:46;;;;;;;;;;;24.10;68.50;;;;;;7577815;19;19922;-70
2023/10/01 15:55:20;;;;;;;;;;;23.90;70.70;;;;;;7584405;19;19922;-69
2023/10/01 15:58:01;;;;;;;;;;;23.60;73.80;;;;;;7578637;19;19957;-69
2023/10/01 16:00:34;;;;;;;;;;;23.50;75.50;;;;;;7592352;19;19922;-70
2023/10/01 16:03:08;;;;;;;;;;;23.30;76.10;;;;;;7569835;19;21077;-70
2023/10/01 16:05:44;;;;;;;;;;;23.10;77.50;;;;;;7579208;19;19949;-70
2023/10/01 16:08:20;;;;;;;;;;;23.00;78.80;;;;;;7583069;19;19953;-70
2023/10/01 16:11:05;;;;;;;;;;;22.70;80.30;;;;;;7574618;19;20348;-69
2023/10/01 16:13:38;;;;;;;;;;;22.60;80.70;;;;;;7582924;19;19922;-70
2023/10/01 16:16:12;;;;;;;;;;;22.60;80.20;;;;;;7581743;19;19938;-70
2023/10/01 16:18:46;;;;;;;;;;;22.40;79.50;;;;;;7588545;19;21459;-72
2023/10/01 16:21:20;;;;;;;;;;;22.20;79.40;;;;;;7590502;19;19926;-70
2023/10/01 16:23:56;;;;;;;;;;;22.20;80.60;;;;;;7589175;19;19922;-70
2023/10/01 16:26:30;;;;;;;;;;;22.00;81.50;;;;;;7578647;19;19926;-71
2023/10/01 16:29:06;;;;;;;;;;;21.90;82.40;;;;;;7569702;19;20755;-71
2023/10/01 16:31:40;;;;;;;;;;;21.80;83.50;;;;;;7561982;19;19918;-69
2023/10/01 16:34:13;;;;;;;;;;;21.60;84.40;;;;;;7579812;19;19953;-70
2023/10/01 16:36:45;;;;;;;;;;;21.50;85.80;;;;;;7586826;19;22353;-70
2023/10/01 16:39:18;;;;;;;;;;;21.30;87.80;;;;;;7563164;19;19918;-74